createdAt,value
2022-09-22T00:01:29.051Z,3.00
2022-09-22T00:03:59.101Z,3.30
2022-09-22T00:06:29.265Z,3.60
2022-09-22T00:09:01.844Z,3.47
2022-09-22T00:11:31.889Z,3.10
2022-09-22T00:14:02.009Z,3.43
2022-09-22T00:16:34.361Z,2.90
2022-09-22T00:19:01.842Z,3.70
2022-09-22T00:21:31.225Z,3.53
2022-09-22T00:24:02.237Z,3.60
2022-09-22T00:26:31.110Z,4.03
2022-09-22T00:28:58.634Z,3.83
2022-09-22T00:31:26.345Z,3.60
2022-09-22T00:33:54.639Z,3.40
2022-09-22T00:36:25.838Z,3.53
2022-09-22T00:38:55.442Z,3.77
2022-09-22T00:41:28.911Z,3.20
2022-09-22T00:44:31.654Z,3.57
2022-09-22T00:47:44.178Z,4.17
2022-09-22T00:50:22.518Z,3.23
2022-09-22T00:53:05.198Z,3.43
2022-09-22T00:55:41.746Z,2.83
2022-09-22T00:58:12.774Z,3.20
2022-09-22T01:00:40.368Z,3.37
2022-09-22T01:03:11.963Z,3.20
2022-09-22T01:05:41.027Z,3.13
2022-09-22T01:08:10.454Z,3.83
2022-09-22T01:10:38.386Z,3.23
2022-09-22T01:13:23.164Z,3.40
2022-09-22T01:16:05.530Z,3.80
2022-09-22T01:18:54.868Z,3.57
2022-09-22T01:21:33.934Z,3.33
2022-09-22T01:24:39.392Z,3.27
2022-09-22T01:27:37.713Z,3.13
2022-09-22T01:30:20.269Z,3.03
2022-09-22T01:33:00.532Z,2.87
2022-09-22T01:35:54.604Z,3.53
2022-09-22T01:38:42.233Z,3.70
2022-09-22T01:41:17.598Z,3.20
2022-09-22T01:43:56.996Z,3.70
2022-09-22T01:46:34.235Z,3.40
2022-09-22T01:49:07.645Z,4.10
2022-09-22T01:51:40.473Z,3.33
2022-09-22T01:54:14.065Z,3.53
2022-09-22T01:56:46.350Z,3.70
2022-09-22T01:59:14.976Z,3.40
2022-09-22T02:01:49.298Z,3.33
2022-09-22T02:04:45.551Z,3.70
2022-09-22T02:07:19.423Z,3.77
2022-09-22T02:09:50.354Z,3.60
2022-09-22T02:12:18.865Z,3.43
2022-09-22T02:14:46.966Z,3.20
2022-09-22T02:17:15.521Z,3.77
2022-09-22T02:19:43.083Z,2.80
2022-09-22T02:22:11.652Z,3.63
2022-09-22T02:24:42.809Z,3.80
2022-09-22T02:27:15.229Z,2.90
2022-09-22T02:29:47.100Z,3.70
2022-09-22T02:32:17.047Z,3.03
2022-09-22T02:34:46.457Z,3.60
2022-09-22T02:37:40.574Z,3.33
2022-09-22T02:40:28.484Z,3.40
2022-09-22T02:43:24.128Z,3.53
2022-09-22T02:46:02.324Z,3.73
2022-09-22T02:48:45.315Z,3.40
2022-09-22T02:51:14.609Z,3.50
2022-09-22T02:53:41.933Z,3.70
2022-09-22T02:56:09.375Z,3.37
2022-09-22T02:58:36.809Z,3.70
2022-09-22T03:01:04.442Z,4.23
2022-09-22T03:03:31.861Z,4.40
2022-09-22T03:05:59.122Z,3.80
2022-09-22T03:08:26.453Z,3.73
2022-09-22T03:10:53.729Z,3.67
2022-09-22T03:13:21.028Z,3.30
2022-09-22T03:15:49.616Z,3.70
2022-09-22T03:18:17.053Z,3.23
2022-09-22T03:20:45.164Z,3.60
2022-09-22T03:23:13.146Z,3.53
2022-09-22T03:25:40.602Z,3.50
2022-09-22T03:28:08.006Z,3.60
2022-09-22T03:30:37.228Z,3.50
2022-09-22T03:33:04.933Z,4.00
2022-09-22T03:35:32.635Z,3.70
2022-09-22T03:37:59.946Z,4.03
2022-09-22T03:40:27.489Z,3.80
2022-09-22T03:42:55.567Z,3.30
2022-09-22T03:45:23.005Z,3.43
2022-09-22T03:47:50.397Z,3.50
2022-09-22T03:50:17.868Z,3.23
2022-09-22T03:52:45.340Z,3.97
2022-09-22T03:55:12.753Z,3.13
2022-09-22T03:57:40.932Z,3.23
2022-09-22T04:00:08.957Z,3.50
2022-09-22T04:02:42.729Z,3.10
2022-09-22T04:05:10.835Z,3.23
2022-09-22T04:07:38.786Z,3.20
2022-09-22T04:10:07.359Z,3.27
2022-09-22T04:12:34.980Z,3.30
2022-09-22T04:15:02.285Z,3.43
2022-09-22T04:17:29.641Z,3.20
2022-09-22T04:19:57.346Z,3.43
2022-09-22T04:22:24.759Z,4.03
2022-09-22T04:24:52.414Z,3.40
2022-09-22T04:27:20.893Z,3.57
2022-09-22T04:29:48.867Z,3.80
2022-09-22T04:32:17.402Z,3.10
2022-09-22T04:34:45.464Z,4.03
2022-09-22T04:37:16.391Z,3.70
2022-09-22T04:39:43.684Z,3.77
2022-09-22T04:42:10.970Z,3.80
2022-09-22T04:44:38.406Z,3.40
2022-09-22T04:47:05.833Z,3.83
2022-09-22T04:49:33.142Z,3.63
2022-09-22T04:52:00.509Z,3.80
2022-09-22T04:54:28.483Z,3.77
2022-09-22T04:56:56.105Z,3.90
2022-09-22T04:59:23.722Z,3.90
2022-09-22T05:01:51.107Z,4.27
2022-09-22T05:04:18.437Z,4.20
2022-09-22T05:06:45.731Z,3.50
2022-09-22T05:09:14.269Z,3.87
2022-09-22T05:11:41.629Z,4.00
2022-09-22T05:14:09.170Z,3.50
2022-09-22T05:16:36.981Z,3.77
2022-09-22T05:19:04.436Z,3.80
2022-09-22T05:21:31.910Z,3.80
2022-09-22T06:48:39.665Z,4.40
2022-09-22T06:51:47.472Z,4.80
2022-09-22T06:54:15.895Z,4.17
2022-09-22T07:00:13.340Z,3.70
2022-09-22T07:02:42.341Z,4.23
2022-09-22T07:05:10.138Z,3.97
2022-09-22T07:28:29.423Z,2.93
2022-09-22T07:31:02.123Z,3.60
2022-09-22T07:33:31.014Z,3.30
2022-09-22T08:08:34.530Z,3.47
2022-09-22T08:11:06.489Z,3.20
2022-09-22T08:13:34.706Z,3.27
2022-09-22T08:16:03.904Z,2.97
2022-09-22T08:18:33.298Z,2.90
2022-09-22T08:21:02.045Z,2.60
2022-09-22T08:23:31.148Z,3.20
2022-09-22T08:26:07.035Z,2.83
2022-09-22T08:28:35.080Z,2.40
2022-09-22T08:31:03.146Z,3.23
2022-09-22T08:33:31.575Z,3.13
2022-09-22T08:36:03.883Z,2.70
2022-09-22T08:38:33.946Z,2.80
2022-09-22T08:41:07.533Z,4.03
2022-09-22T08:43:35.264Z,2.77
2022-09-22T08:46:04.602Z,2.97
2022-09-22T08:48:51.465Z,3.27
2022-09-22T08:51:48.921Z,2.60
2022-09-22T08:54:17.018Z,2.40
2022-09-22T08:57:03.106Z,2.80
2022-09-22T08:59:37.206Z,2.90
2022-09-22T09:02:49.261Z,2.93
2022-09-22T09:05:46.097Z,3.17
2022-09-22T09:08:41.937Z,2.90
2022-09-22T09:11:50.776Z,3.27
2022-09-22T09:14:41.738Z,3.17
2022-09-22T09:17:45.546Z,3.20
2022-09-22T09:26:43.513Z,2.67
2022-09-22T09:29:25.472Z,2.53
2022-09-22T09:39:23.988Z,3.10
2022-09-22T09:42:03.953Z,2.60
2022-09-22T09:45:02.861Z,2.60
2022-09-22T09:48:03.290Z,3.50
2022-09-22T09:50:32.187Z,2.70
2022-09-22T09:53:00.241Z,3.10
2022-09-22T09:55:28.017Z,2.80
2022-09-22T09:58:09.532Z,2.80
2022-09-22T10:01:09.434Z,3.20
2022-09-22T10:03:44.550Z,2.97
2022-09-22T10:06:12.557Z,2.60
2022-09-22T10:08:49.270Z,2.43
2022-09-22T10:11:31.357Z,2.90
2022-09-22T10:13:59.200Z,2.53
2022-09-22T10:16:31.518Z,2.83
2022-09-22T10:18:59.087Z,2.10
2022-09-22T10:21:28.004Z,2.60
2022-09-22T10:24:00.487Z,2.50
2022-09-22T10:26:33.142Z,2.20
2022-09-22T10:29:18.231Z,2.60
2022-09-22T10:32:13.900Z,2.70
2022-09-22T10:34:58.385Z,2.33
2022-09-22T10:37:32.852Z,2.23
2022-09-22T10:40:16.466Z,1.90
2022-09-22T10:42:45.405Z,1.97
2022-09-22T10:45:19.140Z,2.07
2022-09-22T10:47:58.751Z,1.83
2022-09-22T10:50:48.186Z,1.50
2022-09-22T10:53:53.564Z,1.97
2022-09-22T10:56:41.822Z,1.70
2022-09-22T10:59:32.719Z,1.70
2022-09-22T11:02:20.915Z,2.10
2022-09-22T11:05:09.111Z,1.90
2022-09-22T11:08:26.074Z,2.00
2022-09-22T11:11:28.598Z,2.10
2022-09-22T11:14:14.643Z,1.90
2022-09-22T11:17:34.761Z,1.90
2022-09-22T11:33:25.452Z,1.87
2022-09-22T11:36:22.962Z,1.87
2022-09-22T11:54:25.448Z,1.83
2022-09-22T11:57:04.806Z,1.60
2022-09-22T11:59:55.866Z,1.70
2022-09-22T12:02:32.203Z,1.37
2022-09-22T12:05:06.040Z,1.50
2022-09-22T12:07:39.978Z,1.50
2022-09-22T12:10:22.969Z,1.50
2022-09-22T12:12:51.885Z,1.40
2022-09-22T12:15:49.387Z,1.77
2022-09-22T12:18:43.486Z,1.30
2022-09-22T12:21:48.553Z,1.90
2022-09-22T12:24:26.715Z,1.40
2022-09-22T12:32:54.382Z,1.30
2022-09-22T12:35:31.407Z,1.20
2022-09-22T12:38:02.088Z,1.47
2022-09-22T12:40:37.229Z,1.70
2022-09-22T12:43:06.225Z,1.67
2022-09-22T12:45:37.039Z,1.70
2022-09-22T12:48:28.038Z,1.80
2022-09-22T12:51:18.471Z,1.70
2022-09-22T12:56:42.620Z,1.73
2022-09-22T12:59:38.374Z,1.60
2022-09-22T13:02:14.875Z,1.50
2022-09-22T13:05:04.454Z,1.60
2022-09-22T13:07:44.817Z,1.70
2022-09-22T13:10:21.759Z,1.60
2022-09-22T13:13:05.830Z,1.40
2022-09-22T13:15:54.740Z,1.50
2022-09-22T13:18:32.237Z,1.73
2022-09-22T13:21:03.032Z,1.47
2022-09-22T13:23:30.744Z,1.60
2022-09-22T13:26:12.986Z,1.70
2022-09-22T13:28:40.826Z,1.80
2022-09-22T13:40:34.916Z,1.70
2022-09-22T13:50:27.663Z,1.80
2022-09-22T13:52:55.193Z,1.63
2022-09-22T13:55:25.714Z,1.90
2022-09-22T13:57:56.388Z,1.83
2022-09-22T14:00:38.225Z,1.70
2022-09-22T14:03:20.930Z,1.40
2022-09-22T14:05:53.773Z,1.60
2022-09-22T14:09:01.368Z,1.50
2022-09-22T14:24:33.441Z,1.57
2022-09-22T14:27:04.511Z,1.50
2022-09-22T14:29:38.617Z,1.57
2022-09-22T14:32:22.209Z,1.63
2022-09-22T14:34:52.866Z,1.40
2022-09-22T14:37:33.860Z,1.50
2022-09-22T14:40:07.693Z,1.30
2022-09-22T14:42:35.974Z,1.47
2022-09-22T14:45:09.303Z,1.60
2022-09-22T14:47:42.292Z,1.53
2022-09-22T14:50:18.706Z,1.50
2022-09-22T14:53:01.682Z,1.80
2022-09-22T14:55:41.704Z,1.60
2022-09-22T14:58:17.165Z,1.50
2022-09-22T15:01:17.573Z,1.60
2022-09-22T15:03:55.625Z,1.40
2022-09-22T15:06:23.293Z,1.37
2022-09-22T15:08:52.099Z,1.57
2022-09-22T15:11:19.485Z,1.63
2022-09-22T15:13:51.602Z,1.93
2022-09-22T15:16:45.507Z,1.47
2022-09-22T15:19:13.296Z,1.47
2022-09-22T15:21:47.881Z,1.60
2022-09-22T15:24:22.022Z,1.70
2022-09-22T15:26:49.443Z,1.60
2022-09-22T15:29:17.267Z,1.40
2022-09-22T15:31:44.909Z,1.53
2022-09-22T15:34:16.391Z,1.33
2022-09-22T15:36:46.673Z,1.53
2022-09-22T15:39:20.725Z,1.40
2022-09-22T15:41:48.306Z,1.60
2022-09-22T15:44:16.663Z,1.70
2022-09-22T15:46:48.174Z,1.87
2022-09-22T15:49:21.010Z,1.90
2022-09-22T15:51:49.406Z,1.50
2022-09-22T15:54:20.108Z,1.63
2022-09-22T15:56:50.958Z,1.70
2022-09-22T15:59:26.561Z,1.57
2022-09-22T16:01:56.926Z,1.50
2022-09-22T16:04:27.394Z,1.43
2022-09-22T16:06:59.315Z,1.63
2022-09-22T16:09:28.912Z,1.53
2022-09-22T16:11:56.792Z,1.80
2022-09-22T16:14:24.110Z,1.70
2022-09-22T16:20:18.636Z,1.57
2022-09-22T16:22:46.271Z,1.70
2022-09-22T16:25:15.437Z,1.80
2022-09-22T16:27:43.280Z,2.63
2022-09-22T16:30:15.095Z,1.83
2022-09-22T16:32:43.483Z,1.63
2022-09-22T16:35:11.639Z,1.40
2022-09-22T16:37:39.094Z,1.50
2022-09-22T16:40:07.294Z,2.17
2022-09-22T16:42:35.125Z,1.60
2022-09-22T16:45:05.903Z,1.60
2022-09-22T16:47:33.334Z,1.73
2022-09-22T16:50:01.748Z,1.40
2022-09-22T16:52:32.025Z,1.67
2022-09-22T16:55:05.109Z,1.60
2022-09-22T16:57:34.303Z,2.13
2022-09-22T17:00:05.650Z,1.73
2022-09-22T17:02:34.412Z,1.83
2022-09-22T17:05:02.166Z,1.80
2022-09-22T17:07:29.958Z,1.60
2022-09-22T17:10:01.493Z,1.40
2022-09-22T17:12:35.450Z,2.90
2022-09-22T17:15:16.568Z,1.97
2022-09-22T17:17:44.115Z,1.90
2022-09-22T17:23:48.652Z,2.13
2022-09-22T17:26:23.826Z,2.23
2022-09-22T17:28:51.780Z,2.17
2022-09-22T17:31:20.162Z,5.57
2022-09-22T17:33:52.004Z,2.90
2022-09-22T17:36:24.556Z,2.43
2022-09-22T17:38:55.189Z,2.83
2022-09-22T17:41:32.682Z,2.43
2022-09-22T17:44:02.966Z,3.67
2022-09-22T17:46:34.595Z,2.40
2022-09-22T17:49:20.608Z,3.93
2022-09-22T17:52:08.809Z,4.27
2022-09-22T17:54:57.756Z,3.67
2022-09-22T17:57:26.218Z,4.10
2022-09-22T17:59:57.235Z,5.03
2022-09-22T18:02:29.876Z,3.87
2022-09-22T18:04:57.189Z,3.77
2022-09-22T18:07:27.583Z,3.50
2022-09-22T18:09:56.083Z,2.50
2022-09-22T18:28:44.572Z,3.53
2022-09-22T18:31:37.276Z,5.57
2022-09-22T18:56:17.433Z,2.40
2022-09-22T18:58:44.796Z,2.07
2022-09-22T19:01:13.690Z,2.13
2022-09-22T19:03:43.933Z,2.20
2022-09-22T19:06:15.909Z,2.07
2022-09-22T19:08:56.121Z,2.27
2022-09-22T19:11:29.473Z,2.20
2022-09-22T19:13:57.165Z,2.60
2022-09-22T19:16:25.642Z,2.73
2022-09-22T19:18:56.155Z,2.97
2022-09-22T19:21:26.926Z,3.37
2022-09-22T19:23:57.545Z,3.67
2022-09-22T19:26:35.934Z,3.00
2022-09-22T19:29:17.473Z,3.90
2022-09-22T19:31:45.687Z,3.40
2022-09-22T19:34:21.425Z,3.43
2022-09-22T19:36:55.808Z,4.23
2022-09-22T19:39:31.883Z,4.07
2022-09-22T19:42:02.312Z,3.93
2022-09-22T19:44:31.824Z,3.60
2022-09-22T19:47:05.907Z,3.87
2022-09-22T19:49:33.908Z,3.83
2022-09-22T19:52:01.579Z,4.33
2022-09-22T19:54:42.203Z,4.00
2022-09-22T19:57:13.523Z,3.70
2022-09-22T19:59:43.367Z,5.00
2022-09-22T20:02:15.432Z,4.50
2022-09-22T20:04:47.851Z,4.37
2022-09-22T20:07:17.953Z,3.90
2022-09-22T20:09:45.576Z,4.27
2022-09-22T20:12:16.719Z,3.60
2022-09-22T20:14:51.744Z,3.80
2022-09-22T20:17:22.049Z,4.37
2022-09-22T20:19:56.895Z,4.20
2022-09-22T20:22:29.095Z,4.03
2022-09-22T20:24:58.944Z,3.80
2022-09-22T20:27:32.470Z,4.17
2022-09-22T20:30:00.188Z,4.87
2022-09-22T20:32:31.562Z,4.20
2022-09-22T20:34:59.330Z,4.40
2022-09-22T20:37:27.200Z,4.30
2022-09-22T20:39:56.160Z,4.30
2022-09-22T20:42:24.138Z,4.70
2022-09-22T20:44:51.590Z,4.27
2022-09-22T20:47:25.888Z,4.50
2022-09-22T20:49:53.482Z,4.47
2022-09-22T20:52:21.161Z,5.40
2022-09-22T20:54:48.976Z,5.00
2022-09-22T20:57:17.019Z,4.50
2022-09-22T20:59:45.750Z,4.67
2022-09-22T21:02:14.758Z,4.20
2022-09-22T21:04:42.536Z,5.27
2022-09-22T21:07:11.571Z,4.83
2022-09-22T21:09:58.350Z,4.33
2022-09-22T21:12:31.119Z,4.30
2022-09-22T21:14:59.394Z,4.37
2022-09-22T21:17:29.830Z,3.97
2022-09-22T21:19:57.917Z,3.93
2022-09-22T21:22:28.095Z,3.83
2022-09-22T21:24:56.242Z,9.73
2022-09-22T21:27:25.109Z,11.30
2022-09-22T21:29:53.228Z,7.00
2022-09-22T21:32:20.837Z,5.03
2022-09-22T21:34:48.314Z,4.67
2022-09-22T21:37:16.720Z,4.10
2022-09-22T21:39:44.042Z,3.50
2022-09-22T21:42:11.583Z,3.80
2022-09-22T21:44:39.100Z,3.80
2022-09-22T21:47:06.489Z,3.90
2022-09-22T21:49:33.936Z,3.50
2022-09-22T21:52:01.567Z,3.90
2022-09-22T21:54:30.376Z,4.07
2022-09-22T21:56:57.757Z,3.50
2022-09-22T21:59:25.981Z,3.90
2022-09-22T22:01:53.394Z,4.10
2022-09-22T22:04:20.847Z,4.03
2022-09-22T22:06:49.423Z,3.20
2022-09-22T22:09:22.121Z,3.50
2022-09-22T22:11:57.494Z,3.60
2022-09-22T22:14:28.076Z,4.00
2022-09-22T22:16:55.881Z,3.53
2022-09-22T22:19:26.996Z,3.67
2022-09-22T22:21:54.989Z,3.50
2022-09-22T22:24:42.453Z,3.60
2022-09-22T22:27:10.818Z,3.50
2022-09-22T22:29:41.222Z,3.43
2022-09-22T22:32:10.567Z,3.57
2022-09-22T22:34:38.520Z,3.73
2022-09-22T22:37:09.512Z,3.90
2022-09-22T22:39:37.912Z,3.90
2022-09-22T22:42:05.935Z,4.07
2022-09-22T22:44:35.133Z,4.30
2022-09-22T22:47:02.700Z,5.30
2022-09-22T22:49:30.289Z,4.90
2022-09-22T22:51:58.125Z,3.73
2022-09-22T22:54:25.486Z,3.47
2022-09-22T22:56:52.971Z,3.77
2022-09-22T22:59:20.406Z,4.27
2022-09-22T23:01:48.008Z,3.67
2022-09-22T23:04:17.143Z,3.40
2022-09-22T23:06:44.923Z,3.20
2022-09-22T23:09:15.441Z,3.83
2022-09-22T23:11:45.186Z,3.60
2022-09-22T23:14:13.306Z,3.87
2022-09-22T23:16:43.445Z,3.57
2022-09-22T23:19:15.353Z,3.23
2022-09-22T23:21:43.460Z,3.20
2022-09-22T23:24:16.340Z,3.30
2022-09-22T23:26:45.575Z,3.83
2022-09-22T23:29:13.134Z,3.57
2022-09-22T23:31:40.755Z,3.00
2022-09-22T23:34:08.290Z,3.53
2022-09-22T23:36:35.903Z,3.07
2022-09-22T23:39:04.928Z,2.90
2022-09-22T23:41:34.452Z,3.37
2022-09-22T23:44:03.164Z,3.00
2022-09-22T23:46:31.810Z,3.60
2022-09-22T23:49:00.201Z,3.27
2022-09-22T23:51:28.481Z,3.20
2022-09-22T23:53:56.369Z,3.47
2022-09-22T23:56:24.346Z,3.30
2022-09-22T23:58:52.085Z,3.17
